Time;durP1;ratioP1;P1;durP2;ratioP2;P2;SDS_P1;SDS_P2;PMS_P1;PMS_P2;Temp;Humidity;BMP_temperature;BMP_pressure;BME280_temperature;BME280_humidity;BME280_pressure;Samples;Min_cycle;Max_cycle;Signal;HPM_P1;HPM_P2
2024/01/05 00:00:13;;;;;;;3.92;1.85;;;;;;;;;;5066808;28;20125;-77
2024/01/05 00:02:38;;;;;;;4.38;2.20;;;;;;;;;;5073971;28;20378;-78
2024/01/05 00:05:04;;;;;;;2.67;2.15;;;;;;;;;;5073404;28;20039;-77
2024/01/05 00:07:30;;;;;;;5.90;2.40;;;;;;;;;;5079817;28;20149;-77
2024/01/05 00:09:55;;;;;;;3.15;1.88;;;;;;;;;;5079286;28;20122;-78
2024/01/05 00:12:21;;;;;;;6.85;2.70;;;;;;;;;;5058927;28;20486;-76
2024/01/05 00:14:46;;;;;;;8.35;2.70;;;;;;;;;;5073332;28;20053;-77
2024/01/05 00:17:11;;;;;;;4.40;2.40;;;;;;;;;;5099168;28;20062;-77
2024/01/05 00:19:37;;;;;;;4.15;2.13;;;;;;;;;;5093382;28;20051;-77
2024/01/05 00:22:02;;;;;;;5.45;2.15;;;;;;;;;;5080185;28;20035;-77
2024/01/05 00:24:28;;;;;;;1.50;1.40;;;;;;;;;;5073205;28;20428;-77
2024/01/05 00:26:53;;;;;;;8.50;2.15;;;;;;;;;;5071859;28;20043;-79
2024/01/05 00:29:18;;;;;;;4.43;2.05;;;;;;;;;;5071892;28;20024;-81
2024/01/05 00:31:44;;;;;;;2.45;1.77;;;;;;;;;;5049105;28;20028;-78
2024/01/05 00:34:09;;;;;;;9.02;2.67;;;;;;;;;;5065484;28;20032;-77
2024/01/05 00:36:34;;;;;;;6.07;2.10;;;;;;;;;;5070484;28;20155;-77
2024/01/05 00:38:59;;;;;;;6.05;2.25;;;;;;;;;;5070193;28;20025;-78
2024/01/05 00:41:25;;;;;;;5.65;2.65;;;;;;;;;;5077550;28;20035;-77
2024/01/05 00:43:51;;;;;;;5.30;2.65;;;;;;;;;;5047101;28;20021;-77
2024/01/05 00:46:16;;;;;;;4.43;2.38;;;;;;;;;;5058597;28;20071;-78
2024/01/05 00:48:41;;;;;;;3.72;1.70;;;;;;;;;;5056217;28;20032;-77
2024/01/05 00:51:07;;;;;;;2.13;1.92;;;;;;;;;;5044853;28;20029;-77
2024/01/05 00:53:32;;;;;;;6.45;2.10;;;;;;;;;;5068831;28;20020;-77
2024/01/05 00:55:58;;;;;;;3.97;1.65;;;;;;;;;;5056774;28;20032;-77
2024/01/05 00:58:23;;;;;;;0.95;0.95;;;;;;;;;;5056979;28;20103;-77
2024/01/05 01:00:48;;;;;;;2.30;1.77;;;;;;;;;;5071400;28;20043;-77
2024/01/05 01:03:14;;;;;;;4.90;2.00;;;;;;;;;;5065031;28;20390;-77
2024/01/05 01:05:39;;;;;;;2.72;1.75;;;;;;;;;;5065067;28;20108;-77
2024/01/05 01:08:05;;;;;;;7.22;1.90;;;;;;;;;;5062867;28;20047;-78
2024/01/05 01:10:30;;;;;;;7.15;2.28;;;;;;;;;;5058245;28;20037;-77
2024/01/05 01:12:55;;;;;;;10.75;2.20;;;;;;;;;;5060311;28;20024;-77
2024/01/05 01:15:21;;;;;;;4.38;1.98;;;;;;;;;;5060417;28;20073;-77
2024/01/05 01:17:46;;;;;;;5.95;1.55;;;;;;;;;;5060990;28;20025;-77
2024/01/05 01:20:13;;;;;;;3.47;1.98;;;;;;;;;;5058551;28;20140;-77
2024/01/05 01:22:39;;;;;;;4.07;2.03;;;;;;;;;;5072662;28;20104;-79
2024/01/05 01:25:04;;;;;;;4.57;1.60;;;;;;;;;;5068672;28;20039;-77
2024/01/05 01:27:30;;;;;;;3.00;1.55;;;;;;;;;;5054824;28;20029;-76
2024/01/05 01:29:55;;;;;;;1.80;1.20;;;;;;;;;;5058321;28;20590;-79
2024/01/05 01:32:20;;;;;;;1.23;1.00;;;;;;;;;;5043150;28;20493;-79
2024/01/05 01:34:45;;;;;;;1.13;0.80;;;;;;;;;;5058287;28;20029;-78
2024/01/05 01:37:11;;;;;;;3.80;1.10;;;;;;;;;;5070036;28;20016;-78
2024/01/05 01:39:36;;;;;;;4.13;1.50;;;;;;;;;;5071242;28;20439;-76
2024/01/05 01:42:03;;;;;;;4.65;1.20;;;;;;;;;;5068532;28;20036;-78
2024/01/05 01:44:29;;;;;;;4.55;1.38;;;;;;;;;;5045485;28;20021;-79
2024/01/05 01:46:56;;;;;;;4.50;1.25;;;;;;;;;;5071321;28;20036;-77
2024/01/05 01:49:23;;;;;;;1.90;1.30;;;;;;;;;;5068408;28;20023;-77
2024/01/05 01:51:48;;;;;;;1.35;1.20;;;;;;;;;;5060256;28;20025;-78
2024/01/05 01:54:14;;;;;;;2.28;1.33;;;;;;;;;;5066404;28;20135;-77
2024/01/05 01:56:40;;;;;;;3.22;1.15;;;;;;;;;;5046791;28;20482;-77
2024/01/05 01:59:06;;;;;;;1.52;1.00;;;;;;;;;;5064799;28;20032;-77
2024/01/05 02:01:32;;;;;;;1.50;0.80;;;;;;;;;;5055803;28;20033;-77
2024/01/05 02:03:58;;;;;;;1.70;1.15;;;;;;;;;;5073148;28;20059;-77
2024/01/05 02:06:23;;;;;;;2.45;1.33;;;;;;;;;;5039989;28;20044;-77
2024/01/05 02:08:50;;;;;;;3.47;1.23;;;;;;;;;;5060490;28;20403;-77
2024/01/05 02:11:16;;;;;;;1.95;1.00;;;;;;;;;;5048622;28;20035;-77
2024/01/05 02:13:42;;;;;;;2.03;1.25;;;;;;;;;;5071110;28;20024;-77
2024/01/05 02:16:07;;;;;;;6.05;1.83;;;;;;;;;;5058646;28;20609;-77
2024/01/05 02:18:32;;;;;;;1.42;1.23;;;;;;;;;;5060947;28;20051;-77
2024/01/05 02:21:00;;;;;;;3.22;1.48;;;;;;;;;;5066288;28;20020;-77
2024/01/05 02:23:27;;;;;;;4.10;1.70;;;;;;;;;;5079982;28;20023;-78
2024/01/05 02:25:55;;;;;;;3.78;1.67;;;;;;;;;;5063715;28;20055;-77
2024/01/05 02:28:21;;;;;;;4.32;1.23;;;;;;;;;;5062522;28;20058;-77
2024/01/05 02:30:47;;;;;;;3.40;1.60;;;;;;;;;;5074437;28;20044;-77
2024/01/05 02:33:12;;;;;;;2.15;1.40;;;;;;;;;;5071731;28;20032;-78
2024/01/05 02:35:37;;;;;;;0.98;0.98;;;;;;;;;;5054040;28;20035;-77
2024/01/05 02:38:03;;;;;;;2.00;1.40;;;;;;;;;;5067328;28;20024;-77
2024/01/05 02:40:28;;;;;;;1.95;1.50;;;;;;;;;;5071011;28;20094;-77
2024/01/05 02:42:54;;;;;;;1.55;1.45;;;;;;;;;;5073961;28;20027;-77
2024/01/05 02:45:24;;;;;;;2.40;1.30;;;;;;;;;;5082049;28;20025;-76
2024/01/05 02:47:52;;;;;;;1.95;1.17;;;;;;;;;;5076665;28;20017;-76
2024/01/05 02:50:19;;;;;;;2.05;1.05;;;;;;;;;;5068618;28;20275;-77
2024/01/05 02:52:44;;;;;;;2.45;1.17;;;;;;;;;;5067410;28;20044;-76
2024/01/05 02:55:11;;;;;;;1.02;0.77;;;;;;;;;;5057807;28;20025;-76
2024/01/05 02:57:37;;;;;;;2.53;0.85;;;;;;;;;;5068468;28;20059;-76
2024/01/05 03:00:03;;;;;;;2.55;0.80;;;;;;;;;;5059809;28;20031;-77
2024/01/05 03:02:29;;;;;;;8.43;1.30;;;;;;;;;;5062342;28;20048;-77
2024/01/05 03:04:55;;;;;;;1.67;1.00;;;;;;;;;;5065568;28;20025;-77
2024/01/05 03:07:20;;;;;;;0.88;0.70;;;;;;;;;;5064635;28;20077;-78
2024/01/05 03:09:45;;;;;;;3.22;1.27;;;;;;;;;;5066837;28;20504;-78
2024/01/05 03:12:11;;;;;;;2.50;1.00;;;;;;;;;;5065392;28;20013;-78
2024/01/05 03:14:36;;;;;;;2.58;0.65;;;;;;;;;;5066538;28;20024;-77
2024/01/05 03:17:02;;;;;;;0.73;0.70;;;;;;;;;;5064945;28;20028;-78
2024/01/05 03:19:28;;;;;;;0.75;0.75;;;;;;;;;;5057648;28;20053;-77
2024/01/05 03:21:53;;;;;;;0.82;0.80;;;;;;;;;;5083178;28;20031;-77
2024/01/05 03:24:18;;;;;;;2.40;0.80;;;;;;;;;;5064651;28;20047;-77
2024/01/05 03:26:44;;;;;;;4.35;0.90;;;;;;;;;;5044685;28;20032;-79
2024/01/05 03:29:09;;;;;;;1.10;0.95;;;;;;;;;;5067575;28;20029;-78
2024/01/05 03:31:34;;;;;;;1.08;0.93;;;;;;;;;;5057362;28;20028;-78
2024/01/05 03:34:00;;;;;;;1.98;0.95;;;;;;;;;;5063410;28;20020;-78
2024/01/05 03:36:25;;;;;;;4.85;1.13;;;;;;;;;;5056561;28;20029;-78
2024/01/05 03:38:50;;;;;;;1.42;1.10;;;;;;;;;;5066969;28;20560;-78
2024/01/05 03:41:16;;;;;;;1.58;1.10;;;;;;;;;;5080277;28;20059;-77
2024/01/05 03:43:41;;;;;;;0.88;0.88;;;;;;;;;;5059268;28;20016;-78
2024/01/05 03:46:11;;;;;;;2.83;1.10;;;;;;;;;;5063816;28;20356;-77
2024/01/05 03:48:36;;;;;;;1.35;0.77;;;;;;;;;;5070282;28;20493;-77
2024/01/05 03:51:03;;;;;;;0.55;0.50;;;;;;;;;;5061692;28;20028;-78
2024/01/05 03:53:28;;;;;;;0.70;0.70;;;;;;;;;;5054385;28;20063;-77
2024/01/05 03:55:57;;;;;;;1.38;0.70;;;;;;;;;;5058872;28;20474;-77
2024/01/05 03:58:22;;;;;;;1.85;0.77;;;;;;;;;;5077675;28;20024;-77
2024/01/05 04:00:48;;;;;;;1.13;0.95;;;;;;;;;;5061588;28;20028;-77
2024/01/05 04:03:13;;;;;;;0.68;0.68;;;;;;;;;;5091442;28;20054;-77
2024/01/05 04:05:38;;;;;;;0.73;0.70;;;;;;;;;;5081873;28;20024;-77
2024/01/05 04:08:04;;;;;;;0.43;0.43;;;;;;;;;;5073680;28;20057;-78
2024/01/05 04:10:29;;;;;;;0.68;0.52;;;;;;;;;;5081753;28;20024;-78
2024/01/05 04:12:55;;;;;;;3.33;0.73;;;;;;;;;;5059267;28;20099;-78
2024/01/05 04:15:20;;;;;;;1.63;0.85;;;;;;;;;;5060192;28;20108;-77
2024/01/05 04:17:45;;;;;;;1.80;0.57;;;;;;;;;;5065224;28;20024;-77
2024/01/05 04:20:11;;;;;;;0.90;0.82;;;;;;;;;;5063353;28;20020;-77
2024/01/05 04:22:36;;;;;;;1.65;0.50;;;;;;;;;;5074199;28;20033;-77
2024/01/05 04:25:02;;;;;;;2.92;0.70;;;;;;;;;;5067933;28;20058;-77
2024/01/05 04:27:28;;;;;;;6.15;0.90;;;;;;;;;;5077617;28;20465;-77
2024/01/05 04:29:53;;;;;;;0.93;0.47;;;;;;;;;;5066767;28;20036;-77
2024/01/05 04:32:18;;;;;;;0.65;0.65;;;;;;;;;;5067678;28;20017;-77
2024/01/05 04:34:43;;;;;;;0.82;0.80;;;;;;;;;;5070102;28;20406;-77
2024/01/05 04:37:09;;;;;;;3.20;0.88;;;;;;;;;;5071725;28;20031;-77
2024/01/05 04:39:34;;;;;;;2.42;1.13;;;;;;;;;;5060822;28;20064;-77
2024/01/05 04:41:59;;;;;;;1.05;0.40;;;;;;;;;;5054735;28;20027;-78
2024/01/05 04:44:25;;;;;;;1.55;0.95;;;;;;;;;;5064977;28;20036;-77
2024/01/05 04:46:50;;;;;;;2.00;0.60;;;;;;;;;;5080876;28;20029;-77
2024/01/05 04:49:16;;;;;;;0.65;0.65;;;;;;;;;;5062971;28;20028;-77
2024/01/05 04:51:41;;;;;;;2.53;0.77;;;;;;;;;;5071709;28;20173;-78
2024/01/05 04:54:06;;;;;;;1.08;0.57;;;;;;;;;;5074135;28;20462;-78
2024/01/05 04:56:32;;;;;;;0.60;0.60;;;;;;;;;;5065984;28;20434;-78
2024/01/05 04:58:57;;;;;;;1.20;0.93;;;;;;;;;;5068880;28;20739;-77
2024/01/05 05:01:22;;;;;;;1.38;1.00;;;;;;;;;;5059979;28;20035;-77
2024/01/05 05:03:48;;;;;;;5.38;0.82;;;;;;;;;;5069180;28;20020;-77
2024/01/05 05:06:13;;;;;;;2.63;0.70;;;;;;;;;;5058495;28;20044;-77
2024/01/05 05:08:38;;;;;;;1.33;1.08;;;;;;;;;;5057223;28;20079;-77
2024/01/05 05:11:04;;;;;;;1.98;0.85;;;;;;;;;;5063731;28;20033;-77
2024/01/05 05:13:29;;;;;;;0.60;0.60;;;;;;;;;;5061161;28;20051;-77
2024/01/05 05:15:54;;;;;;;3.80;0.73;;;;;;;;;;5054316;28;20021;-76
2024/01/05 05:18:20;;;;;;;1.40;1.23;;;;;;;;;;5069382;28;20083;-77
2024/01/05 05:20:45;;;;;;;0.50;0.50;;;;;;;;;;5063901;28;20027;-77
2024/01/05 05:23:11;;;;;;;2.72;0.63;;;;;;;;;;5066052;28;20051;-77
2024/01/05 05:25:36;;;;;;;0.85;0.63;;;;;;;;;;5065419;28;20088;-76
2024/01/05 05:28:01;;;;;;;4.57;0.70;;;;;;;;;;5046568;28;20065;-77
2024/01/05 05:30:27;;;;;;;1.45;0.75;;;;;;;;;;5075184;28;20028;-77
2024/01/05 05:32:53;;;;;;;0.77;0.47;;;;;;;;;;5052917;28;20024;-78
2024/01/05 05:35:18;;;;;;;1.13;0.70;;;;;;;;;;5063888;28;20025;-78
2024/01/05 05:37:44;;;;;;;0.55;0.55;;;;;;;;;;5070560;28;20033;-78
2024/01/05 05:40:10;;;;;;;5.72;1.42;;;;;;;;;;5054134;28;20020;-78
2024/01/05 05:42:36;;;;;;;4.97;0.60;;;;;;;;;;5052068;28;20029;-78
2024/01/05 05:45:01;;;;;;;0.88;0.82;;;;;;;;;;5066808;28;20031;-78
2024/01/05 05:47:26;;;;;;;0.80;0.80;;;;;;;;;;5063068;28;20020;-77
2024/01/05 05:49:53;;;;;;;4.20;1.10;;;;;;;;;;5062816;28;20033;-78
2024/01/05 05:52:18;;;;;;;1.15;0.47;;;;;;;;;;5055834;28;20028;-76
2024/01/05 05:54:43;;;;;;;2.42;0.98;;;;;;;;;;5061147;28;20372;-76
2024/01/05 05:57:11;;;;;;;2.50;0.85;;;;;;;;;;5057749;28;20024;-77
2024/01/05 05:59:36;;;;;;;1.65;1.00;;;;;;;;;;5071573;28;20021;-77
2024/01/05 06:02:02;;;;;;;0.85;0.47;;;;;;;;;;5052282;28;20035;-77
2024/01/05 06:04:28;;;;;;;0.95;0.60;;;;;;;;;;5065295;28;20625;-77
2024/01/05 06:06:53;;;;;;;0.68;0.50;;;;;;;;;;5088404;28;20069;-77
2024/01/05 06:09:19;;;;;;;2.67;0.85;;;;;;;;;;5073148;28;20100;-77
2024/01/05 06:11:44;;;;;;;2.83;1.40;;;;;;;;;;5052550;28;20406;-77
2024/01/05 06:14:10;;;;;;;1.27;1.10;;;;;;;;;;5066111;28;20043;-77
2024/01/05 06:16:35;;;;;;;0.50;0.50;;;;;;;;;;5055952;28;20029;-77
2024/01/05 06:19:01;;;;;;;1.10;0.90;;;;;;;;;;5060959;28;20024;-77
2024/01/05 06:21:26;;;;;;;1.27;0.98;;;;;;;;;;5066841;28;20497;-77
2024/01/05 06:23:53;;;;;;;1.88;0.93;;;;;;;;;;5069140;28;20030;-77
2024/01/05 06:26:18;;;;;;;0.57;0.57;;;;;;;;;;5065387;28;20410;-77
2024/01/05 06:28:44;;;;;;;0.55;0.40;;;;;;;;;;5062578;28;20024;-77
2024/01/05 06:31:09;;;;;;;1.77;0.70;;;;;;;;;;5055875;28;20029;-77
2024/01/05 06:33:34;;;;;;;0.57;0.57;;;;;;;;;;5061560;28;20123;-77
2024/01/05 06:36:00;;;;;;;1.23;0.82;;;;;;;;;;5056225;28;20021;-77
2024/01/05 06:38:25;;;;;;;1.65;0.63;;;;;;;;;;5063674;28;20027;-77
2024/01/05 06:40:50;;;;;;;3.65;0.80;;;;;;;;;;5086752;28;20033;-77
2024/01/05 06:43:15;;;;;;;1.30;0.77;;;;;;;;;;5075638;28;20463;-76
2024/01/05 06:45:41;;;;;;;0.95;0.60;;;;;;;;;;5045659;28;20033;-78
2024/01/05 06:48:06;;;;;;;2.53;0.85;;;;;;;;;;5077902;28;20024;-78
2024/01/05 06:50:32;;;;;;;1.13;0.60;;;;;;;;;;5052805;28;20016;-77
2024/01/05 06:52:57;;;;;;;0.85;0.60;;;;;;;;;;5071893;28;20050;-77
2024/01/05 06:55:22;;;;;;;7.22;0.68;;;;;;;;;;5064479;28;20631;-77
2024/01/05 06:57:48;;;;;;;1.58;0.70;;;;;;;;;;5066118;28;20437;-77
2024/01/05 07:00:14;;;;;;;1.35;0.63;;;;;;;;;;5061568;28;20078;-77
2024/01/05 07:02:40;;;;;;;0.30;0.30;;;;;;;;;;5067322;28;20435;-78
2024/01/05 07:05:06;;;;;;;2.97;1.10;;;;;;;;;;5061608;28;20394;-77
2024/01/05 07:07:31;;;;;;;0.90;0.73;;;;;;;;;;5047769;28;20486;-78
2024/01/05 07:09:56;;;;;;;2.42;0.73;;;;;;;;;;5068277;28;20393;-77
2024/01/05 07:12:22;;;;;;;10.65;1.02;;;;;;;;;;5043472;28;20086;-77
2024/01/05 07:14:48;;;;;;;2.53;0.77;;;;;;;;;;5072109;28;20164;-78
2024/01/05 07:17:13;;;;;;;1.65;0.85;;;;;;;;;;5091698;28;20015;-77
2024/01/05 07:19:39;;;;;;;2.00;1.02;;;;;;;;;;5102255;28;20301;-77
2024/01/05 07:22:04;;;;;;;0.43;0.30;;;;;;;;;;5068355;28;20113;-77
2024/01/05 07:24:29;;;;;;;0.43;0.43;;;;;;;;;;5064638;28;20025;-76
2024/01/05 07:26:55;;;;;;;2.45;0.70;;;;;;;;;;5068914;28;20016;-78
2024/01/05 07:29:20;;;;;;;0.40;0.40;;;;;;;;;;5070668;28;20013;-76
2024/01/05 07:31:46;;;;;;;1.48;0.68;;;;;;;;;;5060123;28;20067;-77
2024/01/05 07:34:11;;;;;;;0.68;0.50;;;;;;;;;;5033721;28;20533;-77
2024/01/05 07:36:41;;;;;;;2.00;0.77;;;;;;;;;;5058873;28;20025;-77
2024/01/05 07:39:11;;;;;;;4.38;0.80;;;;;;;;;;5076884;28;20144;-76
2024/01/05 07:41:36;;;;;;;0.80;0.80;;;;;;;;;;5042603;28;20040;-77
2024/01/05 07:44:01;;;;;;;2.78;0.90;;;;;;;;;;5064901;28;20123;-77
2024/01/05 07:46:27;;;;;;;3.25;1.35;;;;;;;;;;5076993;28;20074;-77
2024/01/05 07:48:52;;;;;;;0.85;0.77;;;;;;;;;;5054464;28;20104;-77
2024/01/05 07:51:21;;;;;;;0.77;0.40;;;;;;;;;;5046170;28;20024;-77
2024/01/05 07:53:50;;;;;;;0.80;0.80;;;;;;;;;;5051709;28;20078;-76
2024/01/05 07:56:19;;;;;;;5.47;0.73;;;;;;;;;;5087392;28;20039;-77
2024/01/05 07:58:45;;;;;;;0.57;0.57;;;;;;;;;;5077817;28;20116;-76
2024/01/05 08:01:16;;;;;;;0.47;0.47;;;;;;;;;;5059566;28;20049;-79
2024/01/05 08:03:42;;;;;;;2.33;1.40;;;;;;;;;;5072105;28;20506;-77
2024/01/05 08:06:19;;;;;;;2.65;0.95;;;;;;;;;;5063198;28;20032;-77
2024/01/05 08:08:50;;;;;;;2.28;0.73;;;;;;;;;;5078151;28;20111;-77
2024/01/05 08:11:16;;;;;;;0.82;0.55;;;;;;;;;;5065989;28;20086;-77
2024/01/05 08:13:42;;;;;;;0.95;0.77;;;;;;;;;;5088002;28;20020;-77
2024/01/05 08:16:08;;;;;;;0.57;0.57;;;;;;;;;;5087418;28;20421;-77
2024/01/05 08:18:34;;;;;;;1.00;0.93;;;;;;;;;;5064122;28;20483;-77
2024/01/05 08:21:00;;;;;;;1.10;0.80;;;;;;;;;;5063122;28;20447;-77
2024/01/05 08:23:25;;;;;;;1.17;0.75;;;;;;;;;;5051140;28;20030;-77
2024/01/05 08:25:51;;;;;;;5.28;0.95;;;;;;;;;;5080518;28;20028;-77
2024/01/05 08:28:16;;;;;;;2.95;1.02;;;;;;;;;;5054920;28;20021;-77
2024/01/05 08:30:41;;;;;;;1.25;1.13;;;;;;;;;;5073275;28;20398;-77
2024/01/05 08:33:07;;;;;;;0.50;0.50;;;;;;;;;;5059328;28;20028;-77
2024/01/05 08:35:34;;;;;;;0.75;0.75;;;;;;;;;;5047248;28;20020;-77
2024/01/05 08:38:00;;;;;;;2.47;0.80;;;;;;;;;;5058340;28;20036;-78
2024/01/05 08:40:27;;;;;;;0.60;0.60;;;;;;;;;;5060908;28;20017;-78
2024/01/05 08:42:53;;;;;;;1.40;0.95;;;;;;;;;;5052051;28;20028;-78
2024/01/05 08:45:19;;;;;;;0.65;0.65;;;;;;;;;;5062567;28;20020;-78
2024/01/05 08:47:45;;;;;;;2.25;0.93;;;;;;;;;;5068126;28;20448;-77
2024/01/05 08:50:10;;;;;;;4.53;1.13;;;;;;;;;;5060622;28;20029;-77
2024/01/05 08:52:36;;;;;;;1.63;0.90;;;;;;;;;;5055226;28;20013;-77
2024/01/05 08:55:01;;;;;;;0.85;0.77;;;;;;;;;;5037355;28;20039;-77
2024/01/05 08:57:26;;;;;;;1.45;0.98;;;;;;;;;;5055292;28;20047;-78
2024/01/05 08:59:52;;;;;;;6.18;1.15;;;;;;;;;;5049041;28;20036;-77
2024/01/05 09:02:17;;;;;;;2.20;1.02;;;;;;;;;;5055939;28;20045;-77
2024/01/05 09:04:43;;;;;;;2.42;0.90;;;;;;;;;;5051796;28;20064;-78
2024/01/05 09:07:08;;;;;;;1.38;0.57;;;;;;;;;;5054733;28;20041;-77
2024/01/05 09:09:33;;;;;;;1.05;0.77;;;;;;;;;;5055165;28;20066;-80
2024/01/05 09:12:01;;;;;;;2.22;1.02;;;;;;;;;;5029443;28;20124;-77
2024/01/05 09:14:27;;;;;;;4.32;1.25;;;;;;;;;;5058711;28;20039;-77
2024/01/05 09:16:52;;;;;;;1.33;0.82;;;;;;;;;;5057649;28;20032;-78
2024/01/05 09:19:17;;;;;;;0.60;0.60;;;;;;;;;;5052998;28;20021;-79
2024/01/05 09:21:43;;;;;;;1.48;0.57;;;;;;;;;;5053544;28;20017;-78
2024/01/05 09:24:08;;;;;;;2.40;0.90;;;;;;;;;;5064729;28;20398;-78
2024/01/05 09:26:33;;;;;;;6.43;1.17;;;;;;;;;;5060738;28;20040;-78
2024/01/05 09:28:58;;;;;;;0.55;0.52;;;;;;;;;;5039554;28;20070;-78
2024/01/05 09:31:25;;;;;;;3.20;0.90;;;;;;;;;;5062390;28;20024;-77
2024/01/05 09:33:50;;;;;;;3.80;0.93;;;;;;;;;;5053659;28;20017;-78
2024/01/05 09:36:16;;;;;;;1.67;0.88;;;;;;;;;;5057094;28;20035;-77
2024/01/05 09:38:42;;;;;;;1.05;0.98;;;;;;;;;;5060592;28;20024;-77
2024/01/05 09:41:13;;;;;;;5.57;0.68;;;;;;;;;;5060709;28;20036;-77
2024/01/05 09:43:41;;;;;;;1.83;0.67;;;;;;;;;;5054400;28;20050;-78
2024/01/05 09:46:07;;;;;;;1.50;0.90;;;;;;;;;;5068778;28;20037;-77
2024/01/05 09:48:32;;;;;;;0.55;0.55;;;;;;;;;;5056774;28;20019;-77
2024/01/05 09:50:59;;;;;;;1.23;0.82;;;;;;;;;;5061568;28;20361;-77
2024/01/05 09:53:24;;;;;;;2.47;1.08;;;;;;;;;;5054268;28;20498;-78
2024/01/05 09:55:50;;;;;;;2.05;0.80;;;;;;;;;;5059455;28;20115;-78
2024/01/05 09:58:16;;;;;;;4.63;1.17;;;;;;;;;;5050838;28;20060;-78
2024/01/05 10:00:48;;;;;;;3.15;1.13;;;;;;;;;;5074736;28;20028;-80
2024/01/05 10:03:21;;;;;;;1.67;0.82;;;;;;;;;;5033564;28;20036;-77
2024/01/05 10:05:49;;;;;;;4.90;0.85;;;;;;;;;;5068087;28;20035;-78
2024/01/05 10:08:15;;;;;;;0.50;0.50;;;;;;;;;;5060346;28;20493;-77
2024/01/05 10:10:48;;;;;;;2.03;0.90;;;;;;;;;;5064504;28;20036;-78
2024/01/05 10:13:17;;;;;;;2.22;1.00;;;;;;;;;;5062121;28;20021;-77
2024/01/05 10:16:00;;;;;;;0.98;0.75;;;;;;;;;;5043638;28;20017;-82
2024/01/05 10:18:29;;;;;;;8.77;1.13;;;;;;;;;;5049487;28;20059;-77
2024/01/05 10:20:57;;;;;;;2.65;1.00;;;;;;;;;;5060224;28;20477;-77
2024/01/05 10:23:22;;;;;;;1.30;0.82;;;;;;;;;;5052739;28;20030;-77
2024/01/05 10:25:49;;;;;;;2.60;1.15;;;;;;;;;;5078675;28;20036;-76
2024/01/05 10:28:29;;;;;;;4.78;1.45;;;;;;;;;;5053941;28;20016;-77
2024/01/05 10:31:10;;;;;;;1.60;0.80;;;;;;;;;;5063840;28;20085;-76
2024/01/05 10:33:54;;;;;;;0.60;0.60;;;;;;;;;;5067421;28;20020;-76
2024/01/05 10:36:20;;;;;;;7.38;1.13;;;;;;;;;;5067696;28;20020;-76
2024/01/05 10:38:50;;;;;;;1.25;1.20;;;;;;;;;;5066371;28;20039;-76
2024/01/05 10:41:16;;;;;;;3.47;1.38;;;;;;;;;;5063309;28;20092;-76
2024/01/05 10:43:42;;;;;;;1.08;0.95;;;;;;;;;;5052597;28;20036;-76
2024/01/05 10:46:18;;;;;;;2.33;1.10;;;;;;;;;;5068328;28;20028;-79
2024/01/05 10:48:44;;;;;;;0.73;0.65;;;;;;;;;;5044497;28;20537;-76
2024/01/05 10:51:19;;;;;;;1.60;0.85;;;;;;;;;;5066246;28;20024;-76
2024/01/05 10:53:46;;;;;;;0.77;0.77;;;;;;;;;;5066287;28;20024;-76
2024/01/05 10:56:12;;;;;;;3.00;1.05;;;;;;;;;;5059283;28;20031;-76
2024/01/05 10:58:38;;;;;;;6.63;1.20;;;;;;;;;;5053887;28;20020;-77
2024/01/05 11:01:06;;;;;;;3.83;0.90;;;;;;;;;;5067632;28;20021;-77
2024/01/05 11:03:38;;;;;;;1.15;0.90;;;;;;;;;;5067462;28;20020;-80
2024/01/05 11:06:08;;;;;;;2.70;0.90;;;;;;;;;;5070268;28;20478;-77
2024/01/05 11:08:42;;;;;;;3.75;1.10;;;;;;;;;;5065158;28;20021;-78
2024/01/05 11:11:29;;;;;;;3.28;0.80;;;;;;;;;;5063807;28;20063;-78
2024/01/05 11:14:28;;;;;;;1.08;0.85;;;;;;;;;;5040829;28;20073;-79
2024/01/05 11:17:26;;;;;;;1.40;1.30;;;;;;;;;;5045209;28;20024;-79
2024/01/05 11:20:12;;;;;;;3.22;0.88;;;;;;;;;;5069190;28;20089;-78
2024/01/05 11:22:40;;;;;;;2.50;1.35;;;;;;;;;;5067581;28;20039;-78
2024/01/05 11:25:06;;;;;;;0.82;0.82;;;;;;;;;;5059879;28;20086;-78
2024/01/05 11:27:33;;;;;;;2.75;1.23;;;;;;;;;;5049707;28;20052;-77
2024/01/05 11:30:00;;;;;;;1.80;0.98;;;;;;;;;;5058133;28;20078;-78
2024/01/05 11:32:44;;;;;;;3.55;1.10;;;;;;;;;;5064139;28;20024;-77
2024/01/05 11:35:15;;;;;;;4.70;0.90;;;;;;;;;;5052600;28;20057;-79
2024/01/05 11:37:41;;;;;;;1.85;1.00;;;;;;;;;;5069553;28;20047;-78
2024/01/05 11:40:07;;;;;;;1.13;0.88;;;;;;;;;;5068089;28;20441;-79
2024/01/05 11:42:33;;;;;;;3.67;1.38;;;;;;;;;;5060099;28;20041;-79
2024/01/05 11:45:09;;;;;;;1.23;0.77;;;;;;;;;;5058899;28;20024;-78
2024/01/05 11:47:42;;;;;;;3.55;1.10;;;;;;;;;;5063766;28;20016;-77
2024/01/05 11:50:34;;;;;;;1.55;0.70;;;;;;;;;;5056311;28;20067;-78
2024/01/05 11:53:15;;;;;;;1.58;1.10;;;;;;;;;;5055161;28;20039;-78
2024/01/05 11:55:56;;;;;;;0.77;0.77;;;;;;;;;;5066019;28;20501;-78
2024/01/05 11:58:25;;;;;;;1.08;0.80;;;;;;;;;;5061462;28;20074;-81
2024/01/05 12:00:54;;;;;;;1.20;1.08;;;;;;;;;;5080014;28;20029;-78
2024/01/05 12:03:22;;;;;;;1.25;1.05;;;;;;;;;;5059570;28;20025;-78
2024/01/05 12:05:49;;;;;;;1.23;1.13;;;;;;;;;;5065659;28;21527;-77
2024/01/05 12:08:15;;;;;;;1.92;1.20;;;;;;;;;;5065127;28;20028;-78
2024/01/05 12:10:40;;;;;;;4.47;1.10;;;;;;;;;;5066600;28;20466;-77
2024/01/05 12:13:09;;;;;;;1.23;0.93;;;;;;;;;;5060162;28;20106;-81
2024/01/05 12:15:35;;;;;;;1.67;1.05;;;;;;;;;;5059864;28;20008;-78
2024/01/05 12:18:05;;;;;;;1.55;1.00;;;;;;;;;;5057596;28;20387;-78
2024/01/05 12:20:31;;;;;;;4.43;1.67;;;;;;;;;;5066040;28;20025;-78
2024/01/05 12:22:56;;;;;;;1.25;0.90;;;;;;;;;;5065168;28;20127;-78
2024/01/05 12:25:22;;;;;;;0.80;0.60;;;;;;;;;;5068616;28;20036;-78
2024/01/05 12:27:48;;;;;;;6.45;1.27;;;;;;;;;;5067707;28;20037;-78
2024/01/05 12:30:13;;;;;;;1.13;0.90;;;;;;;;;;5056195;28;20032;-78
2024/01/05 12:32:39;;;;;;;1.52;1.27;;;;;;;;;;5066605;28;20032;-77
2024/01/05 12:35:05;;;;;;;2.20;0.88;;;;;;;;;;5056133;28;20521;-77
2024/01/05 12:37:32;;;;;;;2.33;1.23;;;;;;;;;;5041385;28;20017;-77
2024/01/05 12:40:11;;;;;;;0.75;0.75;;;;;;;;;;5052673;28;20076;-76
2024/01/05 12:42:38;;;;;;;2.33;1.17;;;;;;;;;;5061917;28;20490;-79
2024/01/05 12:45:05;;;;;;;3.17;1.05;;;;;;;;;;5068363;28;20059;-79
2024/01/05 12:47:30;;;;;;;1.40;1.30;;;;;;;;;;5053925;28;20029;-79
2024/01/05 12:49:55;;;;;;;4.10;1.10;;;;;;;;;;5059655;28;20025;-79
2024/01/05 12:52:33;;;;;;;1.42;1.13;;;;;;;;;;5057213;28;20044;-78
2024/01/05 12:54:58;;;;;;;6.75;1.35;;;;;;;;;;5054199;28;20033;-77
2024/01/05 12:57:23;;;;;;;0.60;0.60;;;;;;;;;;5061292;28;20040;-78
2024/01/05 12:59:49;;;;;;;3.58;1.33;;;;;;;;;;5063703;28;20020;-78
2024/01/05 13:02:14;;;;;;;1.70;0.90;;;;;;;;;;5063705;28;20031;-78
2024/01/05 13:04:40;;;;;;;1.35;0.93;;;;;;;;;;5057001;28;20210;-78
2024/01/05 13:07:06;;;;;;;3.00;1.13;;;;;;;;;;5066763;28;20020;-79
2024/01/05 13:09:32;;;;;;;5.18;1.25;;;;;;;;;;5057704;28;20017;-78
2024/01/05 13:11:58;;;;;;;1.58;1.40;;;;;;;;;;5077336;28;20044;-78
2024/01/05 13:14:23;;;;;;;1.25;0.93;;;;;;;;;;5067593;28;20064;-77
2024/01/05 13:16:49;;;;;;;1.08;0.75;;;;;;;;;;5061518;28;20024;-78
2024/01/05 13:19:15;;;;;;;4.32;1.45;;;;;;;;;;5064537;28;20120;-78
2024/01/05 13:21:41;;;;;;;2.15;1.33;;;;;;;;;;5070151;28;20028;-77
2024/01/05 13:24:06;;;;;;;2.88;1.60;;;;;;;;;;5081536;28;20104;-77
2024/01/05 13:26:32;;;;;;;2.50;0.98;;;;;;;;;;5051160;28;20056;-77
2024/01/05 13:28:57;;;;;;;1.17;0.90;;;;;;;;;;5059000;28;20550;-77
2024/01/05 13:31:22;;;;;;;3.78;1.27;;;;;;;;;;5065560;28;20494;-77
2024/01/05 13:33:48;;;;;;;1.45;0.93;;;;;;;;;;5072244;28;20143;-77
2024/01/05 13:36:14;;;;;;;5.20;1.33;;;;;;;;;;5064177;28;20617;-79
2024/01/05 13:38:39;;;;;;;1.67;0.95;;;;;;;;;;5065227;28;20040;-79
2024/01/05 13:41:05;;;;;;;1.20;1.10;;;;;;;;;;5060012;28;20021;-78
2024/01/05 13:43:30;;;;;;;2.05;0.98;;;;;;;;;;5051143;28;20541;-79
2024/01/05 13:45:56;;;;;;;1.65;1.13;;;;;;;;;;5066526;28;20037;-79
2024/01/05 13:48:21;;;;;;;1.40;1.13;;;;;;;;;;5058228;28;20027;-79
2024/01/05 13:50:46;;;;;;;1.60;1.40;;;;;;;;;;5055264;28;20039;-79
2024/01/05 13:53:13;;;;;;;3.13;1.70;;;;;;;;;;5055261;28;20494;-78
2024/01/05 13:55:39;;;;;;;1.63;0.80;;;;;;;;;;5032499;28;20064;-78
2024/01/05 13:58:06;;;;;;;3.33;1.50;;;;;;;;;;5055168;28;20052;-78
2024/01/05 14:00:31;;;;;;;1.25;1.10;;;;;;;;;;5052796;28;20033;-79
2024/01/05 14:02:57;;;;;;;3.13;1.30;;;;;;;;;;5045519;28;20043;-78
2024/01/05 14:05:22;;;;;;;2.67;1.33;;;;;;;;;;5063568;28;20459;-78
2024/01/05 14:07:47;;;;;;;3.63;1.50;;;;;;;;;;5058787;28;20028;-77
2024/01/05 14:10:13;;;;;;;5.25;1.80;;;;;;;;;;5064173;28;20028;-77
2024/01/05 14:12:38;;;;;;;5.70;1.40;;;;;;;;;;5056449;28;20023;-77
2024/01/05 14:15:05;;;;;;;2.50;1.40;;;;;;;;;;5040868;28;20395;-78
2024/01/05 14:17:31;;;;;;;1.05;0.90;;;;;;;;;;5060488;28;20433;-78
2024/01/05 14:19:57;;;;;;;0.95;0.90;;;;;;;;;;5053537;28;20031;-78
2024/01/05 14:22:23;;;;;;;3.03;1.75;;;;;;;;;;5076217;28;20375;-77
2024/01/05 14:24:49;;;;;;;4.10;1.58;;;;;;;;;;5061057;28;20035;-78
2024/01/05 14:27:14;;;;;;;1.80;1.20;;;;;;;;;;5069683;28;20104;-77
2024/01/05 14:29:39;;;;;;;2.25;1.17;;;;;;;;;;5060880;28;20055;-78
2024/01/05 14:32:05;;;;;;;1.55;1.27;;;;;;;;;;5044620;28;20028;-77
2024/01/05 14:34:30;;;;;;;1.80;1.05;;;;;;;;;;5047828;28;20024;-77
2024/01/05 14:36:56;;;;;;;0.73;0.73;;;;;;;;;;5056100;28;20509;-78
2024/01/05 14:39:22;;;;;;;3.25;1.15;;;;;;;;;;5052436;28;20025;-77